createdAt,value
2022-12-26T00:02:02.745Z,90.08
2022-12-26T00:04:51.679Z,90.76
2022-12-26T00:06:55.443Z,91.02
2022-12-26T00:09:21.754Z,91.01
2022-12-26T00:11:48.152Z,90.93
2022-12-26T00:14:14.458Z,90.48
2022-12-26T00:16:40.885Z,90.72
2022-12-26T00:19:07.129Z,91.20
2022-12-26T00:21:33.513Z,91.27
2022-12-26T00:23:59.828Z,91.33
2022-12-26T00:26:26.218Z,91.11
2022-12-26T00:28:52.530Z,91.03
2022-12-26T00:31:18.947Z,90.80
2022-12-26T00:33:45.210Z,90.72
2022-12-26T00:36:11.550Z,91.03
2022-12-26T00:38:37.905Z,91.39
2022-12-26T00:41:04.234Z,91.47
2022-12-26T00:43:30.634Z,91.48
2022-12-26T00:45:57.030Z,91.27
2022-12-26T00:48:23.319Z,91.20
2022-12-26T00:50:49.673Z,91.31
2022-12-26T00:53:16.027Z,91.38
2022-12-26T00:55:42.433Z,91.55
2022-12-26T00:58:08.811Z,91.62
2022-12-26T01:00:35.221Z,91.51
2022-12-26T01:03:01.592Z,91.64
2022-12-26T01:05:27.878Z,91.41
2022-12-26T01:08:22.469Z,91.51
2022-12-26T01:10:20.578Z,91.38
2022-12-26T01:12:46.902Z,91.63
2022-12-26T01:15:13.530Z,92.02
2022-12-26T01:17:39.827Z,92.51
2022-12-26T01:20:06.234Z,92.82
2022-12-26T01:22:32.545Z,92.79
2022-12-26T01:24:58.929Z,93.02
2022-12-26T01:27:25.283Z,93.84
2022-12-26T01:29:51.619Z,94.35
2022-12-26T01:32:17.991Z,94.54
2022-12-26T01:34:44.375Z,94.36
2022-12-26T01:37:10.733Z,94.26
2022-12-26T01:39:37.084Z,94.44
2022-12-26T01:42:03.473Z,94.61
2022-12-26T01:44:29.828Z,94.87
2022-12-26T01:46:56.178Z,94.87
2022-12-26T01:49:22.525Z,94.83
2022-12-26T01:51:48.916Z,94.82
2022-12-26T01:54:40.734Z,94.73
2022-12-26T01:56:41.621Z,94.83
2022-12-26T01:59:07.989Z,94.55
2022-12-26T02:01:34.451Z,94.72
2022-12-26T02:04:00.817Z,94.91
2022-12-26T02:06:27.042Z,95.03
2022-12-26T02:08:53.437Z,95.20
2022-12-26T02:11:19.813Z,95.34
2022-12-26T02:13:46.188Z,95.59
2022-12-26T02:16:12.596Z,95.44
2022-12-26T02:18:38.912Z,95.32
2022-12-26T02:21:05.290Z,95.45
2022-12-26T02:23:31.615Z,95.55
2022-12-26T02:25:57.964Z,95.51
2022-12-26T02:28:24.322Z,95.09
2022-12-26T02:30:50.670Z,94.43
2022-12-26T02:33:16.994Z,94.02
2022-12-26T02:35:43.383Z,94.33
2022-12-26T02:38:09.746Z,94.84
2022-12-26T02:40:36.084Z,95.51
2022-12-26T02:43:02.406Z,95.89
2022-12-26T02:45:28.788Z,96.09
2022-12-26T02:47:55.134Z,95.68
2022-12-26T02:50:21.526Z,95.42
2022-12-26T02:52:47.838Z,94.78
2022-12-26T02:55:14.269Z,94.44
2022-12-26T02:57:40.619Z,94.63
2022-12-26T03:00:06.988Z,95.04
2022-12-26T03:02:33.421Z,95.34
2022-12-26T03:04:59.648Z,95.69
2022-12-26T03:07:25.968Z,95.84
2022-12-26T03:09:52.352Z,95.86
2022-12-26T03:12:18.665Z,95.99
2022-12-26T03:14:45.011Z,96.20
2022-12-26T03:17:11.423Z,96.31
2022-12-26T03:19:37.726Z,96.04
2022-12-26T03:22:04.041Z,95.41
2022-12-26T03:24:30.429Z,95.37
2022-12-26T03:26:56.735Z,95.68
2022-12-26T03:29:23.081Z,95.79
2022-12-26T03:31:49.500Z,95.94
2022-12-26T03:34:15.843Z,96.32
2022-12-26T03:36:42.221Z,96.39
2022-12-26T03:39:08.627Z,96.77
2022-12-26T03:41:34.940Z,97.17
2022-12-26T03:44:01.283Z,99.01
2022-12-26T03:46:27.613Z,100.00
2022-12-26T03:48:53.944Z,100.00
2022-12-26T03:51:20.269Z,99.89
2022-12-26T03:53:46.615Z,99.51
2022-12-26T03:56:12.978Z,97.77
2022-12-26T03:58:39.306Z,97.45
2022-12-26T04:01:05.775Z,97.47
2022-12-26T04:03:32.142Z,97.42
2022-12-26T04:05:58.385Z,97.60
2022-12-26T04:08:24.760Z,97.58
2022-12-26T04:10:51.091Z,97.99
2022-12-26T04:13:17.466Z,98.25
2022-12-26T04:15:43.873Z,98.10
2022-12-26T04:18:10.145Z,97.83
2022-12-26T04:20:36.533Z,97.62
2022-12-26T04:23:02.893Z,97.40
2022-12-26T04:25:48.610Z,97.36
2022-12-26T04:27:55.701Z,97.35
2022-12-26T04:30:22.001Z,97.38
2022-12-26T04:32:48.355Z,96.74
2022-12-26T04:35:14.764Z,96.11
2022-12-26T04:37:41.146Z,95.85
2022-12-26T04:40:07.513Z,95.78
2022-12-26T04:42:33.854Z,95.48
2022-12-26T04:45:00.260Z,95.42
2022-12-26T04:47:26.558Z,95.20
2022-12-26T04:49:52.912Z,95.16
2022-12-26T04:52:19.252Z,95.11
2022-12-26T04:54:45.611Z,95.62
2022-12-26T04:57:11.998Z,96.11
2022-12-26T04:59:38.431Z,96.44
2022-12-26T05:02:04.773Z,96.79
2022-12-26T05:04:30.959Z,97.09
2022-12-26T05:06:57.311Z,97.46
2022-12-26T05:09:23.678Z,97.82
2022-12-26T05:11:50.008Z,98.22
2022-12-26T05:14:16.363Z,98.64
2022-12-26T05:16:42.702Z,98.99
2022-12-26T05:19:09.064Z,99.17
2022-12-26T05:21:35.442Z,99.27
2022-12-26T05:24:01.809Z,99.19
2022-12-26T05:26:28.133Z,99.10
2022-12-26T05:28:54.539Z,99.11
2022-12-26T05:31:20.963Z,99.25
2022-12-26T05:33:47.231Z,99.22
2022-12-26T05:36:13.626Z,99.19
2022-12-26T05:38:39.972Z,99.35
2022-12-26T05:41:06.349Z,99.38
2022-12-26T05:43:32.666Z,99.29
2022-12-26T05:45:59.007Z,99.34
2022-12-26T05:48:25.361Z,99.50
2022-12-26T05:50:51.717Z,99.31
2022-12-26T05:53:18.086Z,99.05
2022-12-26T05:55:44.475Z,98.99
2022-12-26T05:58:10.842Z,99.01
2022-12-26T06:00:37.150Z,99.16
2022-12-26T06:03:03.635Z,99.27
2022-12-26T06:05:30.006Z,99.50
2022-12-26T06:07:56.294Z,99.65
2022-12-26T06:10:22.646Z,99.64
2022-12-26T06:12:49.009Z,99.30
2022-12-26T06:15:15.325Z,98.79
2022-12-26T06:17:41.693Z,98.00
2022-12-26T06:20:08.076Z,96.60
2022-12-26T06:22:34.393Z,95.06
2022-12-26T06:25:00.761Z,94.22
2022-12-26T06:27:27.093Z,92.98
2022-12-26T06:29:53.486Z,92.68
2022-12-26T06:32:19.825Z,92.31
2022-12-26T06:34:46.159Z,90.83
2022-12-26T06:37:12.487Z,89.59
2022-12-26T06:39:38.888Z,88.67
2022-12-26T06:42:05.197Z,88.13
2022-12-26T06:44:31.575Z,86.77
2022-12-26T06:46:57.973Z,86.07
2022-12-26T06:49:30.429Z,84.30
2022-12-26T06:51:50.605Z,83.87
2022-12-26T06:54:16.973Z,84.00
2022-12-26T06:56:43.333Z,83.23
2022-12-26T06:59:09.716Z,81.57
2022-12-26T07:01:36.156Z,82.45
2022-12-26T07:04:02.445Z,82.51
2022-12-26T07:06:28.817Z,82.57
2022-12-26T07:08:55.134Z,82.33
2022-12-26T07:11:21.462Z,81.12
2022-12-26T07:13:47.845Z,80.52
2022-12-26T07:16:14.184Z,79.63
2022-12-26T07:18:40.631Z,78.21
2022-12-26T07:21:06.933Z,76.09
2022-12-26T07:23:33.330Z,76.19
2022-12-26T07:25:59.689Z,76.02
2022-12-26T07:28:26.020Z,75.06
2022-12-26T07:30:52.333Z,74.04
2022-12-26T07:33:18.735Z,73.94
2022-12-26T07:35:45.087Z,73.91
2022-12-26T07:38:11.426Z,74.01
2022-12-26T07:40:37.738Z,72.96
2022-12-26T07:43:04.137Z,72.59
2022-12-26T07:45:30.516Z,73.15
2022-12-26T07:47:56.856Z,73.27
2022-12-26T07:50:23.169Z,73.00
2022-12-26T07:52:49.597Z,73.47
2022-12-26T07:55:15.976Z,72.94
2022-12-26T07:57:49.924Z,72.60
2022-12-26T08:00:08.806Z,73.24
2022-12-26T08:02:35.250Z,73.77
2022-12-26T08:05:01.542Z,74.10
2022-12-26T08:07:27.909Z,74.45
2022-12-26T08:09:54.223Z,74.30
2022-12-26T08:12:20.607Z,74.52
2022-12-26T08:14:46.977Z,74.37
2022-12-26T08:17:13.448Z,73.13
2022-12-26T08:19:39.724Z,71.91
2022-12-26T08:22:06.074Z,71.81
2022-12-26T08:24:32.436Z,70.56
2022-12-26T08:26:58.768Z,68.08
2022-12-26T08:29:25.107Z,68.75
2022-12-26T08:31:51.477Z,68.27
2022-12-26T08:34:17.832Z,68.70
2022-12-26T08:36:44.174Z,68.31
2022-12-26T08:39:10.521Z,67.72
2022-12-26T08:41:36.897Z,66.79
2022-12-26T08:44:26.304Z,66.59
2022-12-26T08:46:29.618Z,66.64
2022-12-26T08:48:55.998Z,65.57
2022-12-26T08:51:22.344Z,67.04
2022-12-26T08:53:48.696Z,66.26
2022-12-26T08:56:15.029Z,67.68
2022-12-26T08:58:41.386Z,67.45
2022-12-26T09:01:07.904Z,65.93
2022-12-26T09:03:34.206Z,64.31
2022-12-26T09:06:05.645Z,63.39
2022-12-26T09:08:26.872Z,62.89
2022-12-26T09:10:53.375Z,65.01
2022-12-26T09:13:19.679Z,64.31
2022-12-26T09:15:46.055Z,65.87
2022-12-26T09:18:12.346Z,64.80
2022-12-26T09:20:38.743Z,65.04
2022-12-26T09:23:05.098Z,64.81
2022-12-26T09:25:31.437Z,64.57
2022-12-26T09:27:59.518Z,64.03
2022-12-26T09:30:24.149Z,63.36
2022-12-26T09:32:50.473Z,63.69
2022-12-26T09:35:16.929Z,62.86
2022-12-26T09:37:43.342Z,63.41
2022-12-26T09:40:09.714Z,63.18
2022-12-26T09:42:36.072Z,63.19
2022-12-26T09:45:02.474Z,63.29
2022-12-26T09:47:28.775Z,63.31
2022-12-26T09:49:55.166Z,63.66
2022-12-26T09:52:21.484Z,62.72
2022-12-26T09:54:47.869Z,61.95
2022-12-26T09:57:15.224Z,62.81
2022-12-26T09:59:40.618Z,61.91
2022-12-26T10:02:07.041Z,60.88
2022-12-26T10:04:33.336Z,60.75
2022-12-26T10:06:59.677Z,59.57
2022-12-26T10:09:26.101Z,58.97
2022-12-26T10:11:52.412Z,59.29
2022-12-26T10:14:21.603Z,58.35
2022-12-26T10:16:45.247Z,57.96
2022-12-26T10:19:11.619Z,57.46
2022-12-26T10:21:37.943Z,55.95
2022-12-26T10:24:04.283Z,54.73
2022-12-26T10:26:30.613Z,54.21
2022-12-26T10:28:56.947Z,55.83
2022-12-26T10:31:23.324Z,55.58
2022-12-26T10:33:49.624Z,54.24
2022-12-26T10:36:15.968Z,53.67
2022-12-26T10:38:42.313Z,53.18
2022-12-26T10:41:08.667Z,52.32
2022-12-26T10:43:35.091Z,53.58
2022-12-26T10:46:01.479Z,53.48
2022-12-26T10:48:27.817Z,53.54
2022-12-26T10:50:54.125Z,54.94
2022-12-26T10:53:20.472Z,54.94
2022-12-26T10:55:46.857Z,54.67
2022-12-26T10:58:13.234Z,54.80
2022-12-26T11:00:39.585Z,56.19
2022-12-26T11:03:06.100Z,55.34
2022-12-26T11:05:57.450Z,53.92
2022-12-26T11:07:58.697Z,52.54
2022-12-26T11:10:25.070Z,52.49
2022-12-26T11:12:51.439Z,52.06
2022-12-26T11:15:17.779Z,51.51
2022-12-26T11:17:44.162Z,51.36
2022-12-26T11:20:10.469Z,50.78
2022-12-26T11:22:36.891Z,51.30
2022-12-26T11:25:03.233Z,51.15
2022-12-26T11:27:29.637Z,51.15
2022-12-26T11:29:55.977Z,49.75
2022-12-26T11:32:22.384Z,49.59
2022-12-26T11:34:48.724Z,50.42
2022-12-26T11:37:15.061Z,50.98
2022-12-26T11:39:41.470Z,49.63
2022-12-26T11:42:07.821Z,50.23
2022-12-26T11:44:34.138Z,49.56
2022-12-26T11:47:00.646Z,49.66
2022-12-26T11:49:26.860Z,49.06
2022-12-26T11:51:58.810Z,48.73
2022-12-26T11:54:19.668Z,49.20
2022-12-26T11:56:46.003Z,49.14
2022-12-26T11:59:12.338Z,49.96
2022-12-26T12:01:38.876Z,49.62
2022-12-26T12:04:05.144Z,50.07
2022-12-26T12:06:31.585Z,50.07
2022-12-26T12:09:03.824Z,49.29
2022-12-26T12:11:24.313Z,48.61
2022-12-26T12:13:50.665Z,48.51
2022-12-26T12:16:17.093Z,47.36
2022-12-26T12:18:43.371Z,47.52
2022-12-26T12:21:09.721Z,47.57
2022-12-26T12:23:36.052Z,47.83
2022-12-26T12:26:02.413Z,47.71
2022-12-26T12:28:28.770Z,47.21
2022-12-26T12:30:55.176Z,46.32
2022-12-26T12:33:21.486Z,47.65
2022-12-26T12:35:47.865Z,47.52
2022-12-26T12:38:14.181Z,47.23
2022-12-26T12:40:40.568Z,47.98
2022-12-26T12:43:06.951Z,47.89
2022-12-26T12:45:33.294Z,47.04
2022-12-26T12:47:59.657Z,46.61
2022-12-26T12:50:26.008Z,45.93
2022-12-26T12:52:52.397Z,46.47
2022-12-26T12:55:18.814Z,47.27
2022-12-26T12:57:45.138Z,47.15
2022-12-26T13:00:11.578Z,47.62
2022-12-26T13:02:38.009Z,47.36
2022-12-26T13:05:04.205Z,46.95
2022-12-26T13:07:30.585Z,46.28
2022-12-26T13:09:56.912Z,46.57
2022-12-26T13:12:23.325Z,47.58
2022-12-26T13:14:49.634Z,47.93
2022-12-26T13:17:16.004Z,48.09
2022-12-26T13:19:42.327Z,47.78
2022-12-26T13:22:08.704Z,48.00
2022-12-26T13:24:35.829Z,47.16
2022-12-26T13:27:02.151Z,47.10
2022-12-26T13:29:28.522Z,46.90
2022-12-26T13:31:54.888Z,47.53
2022-12-26T13:34:21.225Z,47.22
2022-12-26T13:36:47.611Z,47.78
2022-12-26T13:39:14.026Z,48.42
2022-12-26T13:41:40.428Z,48.55
2022-12-26T13:44:06.773Z,49.39
2022-12-26T13:46:33.107Z,50.15
2022-12-26T13:48:59.487Z,50.00
2022-12-26T13:51:25.817Z,49.57
2022-12-26T13:53:52.181Z,49.67
2022-12-26T13:56:18.550Z,49.69
2022-12-26T13:58:44.924Z,50.69
2022-12-26T14:01:11.538Z,51.18
2022-12-26T14:03:37.794Z,51.86
2022-12-26T14:06:04.025Z,52.41
2022-12-26T14:08:30.354Z,52.55
2022-12-26T14:10:56.741Z,53.13
2022-12-26T14:13:23.118Z,53.77
2022-12-26T14:15:49.459Z,54.50
2022-12-26T14:18:15.817Z,54.96
2022-12-26T14:20:42.204Z,55.05
2022-12-26T14:23:08.560Z,55.48
2022-12-26T14:25:34.951Z,55.67
2022-12-26T14:28:01.272Z,55.65
2022-12-26T14:30:27.645Z,56.04
2022-12-26T14:32:53.963Z,57.11
2022-12-26T14:35:20.343Z,57.27
2022-12-26T14:37:46.708Z,57.68
2022-12-26T14:40:13.143Z,58.00
2022-12-26T14:42:39.625Z,58.03
2022-12-26T14:45:06.007Z,58.09
2022-12-26T14:47:32.334Z,58.24
2022-12-26T14:49:58.675Z,58.79
2022-12-26T14:52:25.028Z,59.12
2022-12-26T14:54:51.761Z,59.50
2022-12-26T14:57:17.932Z,60.00
2022-12-26T14:59:44.315Z,60.53
2022-12-26T15:02:10.827Z,61.20
2022-12-26T15:04:37.060Z,61.88
2022-12-26T15:07:03.381Z,62.52
2022-12-26T15:09:29.827Z,62.48
2022-12-26T15:11:56.130Z,62.42
2022-12-26T15:14:22.473Z,62.80
2022-12-26T15:16:48.794Z,63.21
2022-12-26T15:19:15.141Z,63.55
2022-12-26T15:21:41.494Z,63.96
2022-12-26T15:24:07.881Z,64.33
2022-12-26T15:26:34.239Z,65.09
2022-12-26T15:29:00.577Z,65.46
2022-12-26T15:31:26.962Z,66.11
2022-12-26T15:33:53.336Z,66.89
2022-12-26T15:36:19.684Z,67.05
2022-12-26T15:38:46.063Z,67.12
2022-12-26T15:41:12.409Z,67.72
2022-12-26T15:43:38.772Z,68.11
2022-12-26T15:46:05.107Z,68.10
2022-12-26T15:48:31.474Z,68.24
2022-12-26T15:50:57.830Z,68.29
2022-12-26T15:53:24.181Z,68.48
2022-12-26T15:55:50.513Z,68.80
2022-12-26T15:58:16.913Z,69.07
2022-12-26T16:00:43.264Z,69.45
2022-12-26T16:03:09.667Z,69.88
2022-12-26T16:05:35.999Z,70.29
2022-12-26T16:08:02.339Z,70.56
2022-12-26T16:10:28.713Z,70.43
2022-12-26T16:12:55.096Z,71.16
2022-12-26T16:15:21.416Z,71.45
2022-12-26T16:17:47.802Z,71.62
2022-12-26T16:20:18.605Z,72.03
2022-12-26T16:22:40.468Z,72.32
2022-12-26T16:25:06.822Z,72.89
2022-12-26T16:27:33.166Z,73.66
2022-12-26T16:29:59.531Z,74.85
2022-12-26T16:32:25.906Z,77.60
2022-12-26T16:34:52.257Z,76.19
2022-12-26T16:37:18.636Z,78.08
2022-12-26T16:39:44.967Z,77.20
2022-12-26T16:42:11.356Z,76.92
2022-12-26T16:44:37.699Z,76.46
2022-12-26T16:47:04.215Z,77.26
2022-12-26T16:49:30.954Z,75.41
2022-12-26T16:51:57.298Z,76.70
2022-12-26T16:54:23.669Z,77.12
2022-12-26T16:56:50.036Z,77.32
2022-12-26T16:59:17.874Z,76.68
2022-12-26T17:01:43.284Z,76.97
2022-12-26T17:04:09.937Z,75.05
2022-12-26T17:06:36.279Z,75.57
2022-12-26T17:09:02.733Z,76.56
2022-12-26T17:11:29.127Z,77.73
2022-12-26T17:13:55.463Z,78.17
2022-12-26T17:16:21.915Z,78.24
2022-12-26T17:18:48.181Z,78.56
2022-12-26T17:21:14.566Z,78.73
2022-12-26T17:23:40.965Z,78.73
2022-12-26T17:26:07.343Z,78.84
2022-12-26T17:28:33.670Z,79.24
2022-12-26T17:31:00.172Z,80.01
2022-12-26T17:33:26.476Z,80.25
2022-12-26T17:38:19.153Z,80.41
2022-12-26T17:40:45.535Z,79.70
2022-12-26T17:43:11.873Z,79.83
2022-12-26T17:45:44.556Z,80.10
2022-12-26T17:48:04.583Z,80.44
2022-12-26T17:50:30.951Z,80.75
2022-12-26T17:52:57.438Z,81.28
2022-12-26T17:55:23.801Z,81.59
2022-12-26T17:57:50.163Z,81.40
2022-12-26T18:00:16.545Z,81.50
2022-12-26T18:02:43.046Z,81.12
2022-12-26T18:05:09.296Z,80.95
2022-12-26T18:07:35.664Z,81.26
2022-12-26T18:10:02.030Z,81.26
2022-12-26T18:12:28.333Z,80.56
2022-12-26T18:15:01.131Z,80.46
2022-12-26T18:17:21.054Z,80.37
2022-12-26T18:19:47.570Z,81.21
2022-12-26T18:22:13.764Z,81.64
2022-12-26T18:24:40.142Z,81.98
2022-12-26T18:27:06.551Z,82.10
2022-12-26T18:29:32.933Z,82.31
2022-12-26T18:31:59.315Z,82.34
2022-12-26T18:34:25.679Z,82.76
2022-12-26T18:36:52.037Z,82.97
2022-12-26T18:39:18.470Z,83.15
2022-12-26T18:41:44.756Z,83.42
2022-12-26T18:44:11.213Z,83.67
2022-12-26T18:46:37.569Z,83.87
2022-12-26T18:49:03.902Z,83.71
2022-12-26T18:51:30.332Z,83.22
2022-12-26T18:53:56.704Z,83.14
2022-12-26T18:56:23.022Z,82.93
2022-12-26T18:58:55.553Z,83.13
2022-12-26T19:01:15.819Z,84.03
2022-12-26T19:03:42.159Z,84.76
2022-12-26T19:06:08.464Z,85.26
2022-12-26T19:08:34.813Z,85.32
2022-12-26T19:11:01.155Z,85.54
2022-12-26T19:13:27.523Z,86.23
2022-12-26T19:15:53.974Z,86.79
2022-12-26T19:18:20.345Z,87.55
2022-12-26T19:20:46.712Z,87.70
2022-12-26T19:23:13.040Z,87.90
2022-12-26T19:25:39.420Z,88.14
2022-12-26T19:28:05.758Z,87.76
2022-12-26T19:30:36.871Z,87.64
2022-12-26T19:32:58.453Z,87.84
2022-12-26T19:35:24.775Z,87.93
2022-12-26T19:37:51.115Z,87.66
2022-12-26T19:40:24.533Z,87.44
2022-12-26T19:42:43.779Z,87.70
2022-12-26T19:45:10.101Z,88.40
2022-12-26T19:47:36.499Z,88.93
2022-12-26T19:50:02.836Z,89.17
2022-12-26T19:52:29.220Z,88.79
2022-12-26T19:54:55.541Z,88.63
2022-12-26T19:57:21.913Z,88.43
2022-12-26T19:59:48.338Z,88.04
2022-12-26T20:02:14.769Z,87.57
2022-12-26T20:04:41.038Z,87.85
2022-12-26T20:07:07.370Z,88.06
2022-12-26T20:09:33.776Z,88.15
2022-12-26T20:12:00.173Z,88.16
2022-12-26T20:14:26.490Z,88.37
2022-12-26T20:17:09.196Z,88.07
2022-12-26T20:19:19.986Z,87.87
2022-12-26T20:21:45.745Z,87.56
2022-12-26T20:24:12.120Z,87.69
2022-12-26T20:26:38.491Z,87.78
2022-12-26T20:29:04.808Z,88.33
2022-12-26T20:31:31.175Z,88.83
2022-12-26T20:33:57.510Z,89.28
2022-12-26T20:36:23.886Z,89.40
2022-12-26T20:38:50.242Z,88.99
2022-12-26T20:41:16.647Z,89.10
2022-12-26T20:43:43.006Z,89.35
2022-12-26T20:46:09.379Z,89.51
2022-12-26T20:48:35.721Z,89.42
2022-12-26T20:51:02.110Z,89.66
2022-12-26T20:53:28.420Z,89.56
2022-12-26T20:55:54.780Z,88.52
2022-12-26T20:58:25.302Z,87.66
2022-12-26T21:00:47.453Z,88.78
2022-12-26T21:03:13.943Z,89.45
2022-12-26T21:05:40.268Z,90.29
2022-12-26T21:08:06.629Z,90.85
2022-12-26T21:10:32.970Z,91.26
2022-12-26T21:12:59.337Z,91.59
2022-12-26T21:15:25.682Z,91.77
2022-12-26T21:17:52.045Z,91.77
2022-12-26T21:20:18.430Z,91.55
2022-12-26T21:22:44.734Z,92.03
2022-12-26T21:25:11.147Z,92.09
2022-12-26T21:27:40.291Z,92.28
2022-12-26T21:30:03.804Z,92.41
2022-12-26T21:32:30.124Z,92.04
2022-12-26T21:34:56.551Z,91.61
2022-12-26T21:37:22.876Z,91.40
2022-12-26T21:39:49.310Z,91.25
2022-12-26T21:42:15.631Z,91.48
2022-12-26T21:44:42.029Z,91.77
2022-12-26T21:47:08.434Z,91.92
2022-12-26T21:49:34.716Z,91.63
2022-12-26T21:52:01.026Z,91.22
2022-12-26T21:54:27.402Z,91.18
2022-12-26T21:56:53.704Z,90.91
2022-12-26T21:59:20.065Z,90.76
2022-12-26T22:01:46.499Z,91.29
2022-12-26T22:04:12.744Z,91.79
2022-12-26T22:06:39.102Z,91.97
2022-12-26T22:09:05.485Z,92.07
2022-12-26T22:11:31.799Z,91.85
2022-12-26T22:13:58.176Z,91.85
2022-12-26T22:16:24.586Z,92.03
2022-12-26T22:18:50.947Z,92.32
2022-12-26T22:21:17.287Z,92.29
2022-12-26T22:23:43.664Z,91.89
2022-12-26T22:26:10.021Z,91.93
2022-12-26T22:28:36.411Z,91.77
2022-12-26T22:31:02.749Z,91.48
2022-12-26T22:33:29.096Z,91.80
2022-12-26T22:35:55.436Z,92.19
2022-12-26T22:38:21.852Z,92.09
2022-12-26T22:40:48.209Z,92.35
2022-12-26T22:43:14.550Z,91.47
2022-12-26T22:45:40.912Z,91.18
2022-12-26T22:48:07.288Z,91.10
2022-12-26T22:50:33.635Z,91.45
2022-12-26T22:53:00.018Z,91.54
2022-12-26T22:55:26.334Z,91.39
2022-12-26T22:57:53.785Z,91.59
2022-12-26T23:00:19.139Z,91.51
2022-12-26T23:02:45.538Z,91.61
2022-12-26T23:05:11.807Z,91.48
2022-12-26T23:07:38.125Z,91.48
2022-12-26T23:10:04.509Z,91.97
2022-12-26T23:12:30.879Z,91.90
2022-12-26T23:14:57.245Z,92.43
2022-12-26T23:17:23.617Z,92.92
2022-12-26T23:19:49.982Z,93.36
2022-12-26T23:22:16.345Z,93.30
2022-12-26T23:24:42.770Z,93.25
2022-12-26T23:27:11.987Z,93.33
2022-12-26T23:29:35.355Z,92.86
2022-12-26T23:32:01.675Z,93.13
2022-12-26T23:34:28.070Z,92.98
2022-12-26T23:36:54.431Z,93.38
2022-12-26T23:39:20.820Z,93.76
2022-12-26T23:41:47.165Z,94.23
2022-12-26T23:44:13.552Z,94.20
2022-12-26T23:46:40.086Z,97.77
2022-12-26T23:49:06.347Z,100.00
2022-12-26T23:51:32.795Z,99.12
2022-12-26T23:53:59.115Z,97.61
2022-12-26T23:56:25.471Z,93.40
2022-12-26T23:58:51.890Z,91.43
